Huvudsida
METAR-TAF:

METAR-TAF

Flygplatser :

Salgado Filho International Airport

Porto Alegre, Rio Grande do Sul, Brasilien

latitud: 30-00S, longitud: 051-11W, höjd: 3 m

Aktuellt väderrapport

Denna rapport gjordes för 59 minuter sedan, klockan 14:00 UTC
Vind 13 kt från ost
Temperatur 22°C
Fuktighet 78%
Tryck 1020 hPa
Sikt 10 km eller mer
Spridda moln på en höjd av 2000 ft
Mulet på en höjd av 5000 ft

METAR: SBPA 231400Z 10013KT 9999 SCT020 OVC050 22/18 Q1020

Tid: 11:59 (14:59 UTC)

Väderprognos

Denna rapport gjordes för 5 timmar och 14 minuter sedan, klockan 09:45 UTC
Prognos gäller från 23 kl. 12 UTC till 24 kl. 12 UTC
Vind 7 kt från sydost
Sikt 10 km eller mer
Brutna moln på en höjd av 3000 ft
Blir
från 23 kl. 13 UTC till 23 kl. 15 UTC
Vind 8 kt från ost/sydost
Spridda moln på en höjd av 3000 ft

TAF: SBPA 230945Z 2312/2412 13007KT 9999 BKN030 TX25/2318Z TN17/2408Z BECMG 2313/2315 11008KT SCT030 RMK PEB

Aktuella väderrapporter och prognoser från 4000 flygplatser (METAR- och TAF-rapporter).

De tillgängliga stationerna syns som gula och röda prickar på kartan.

För musen över prickarna för att se namnen på stationerna.

Klicka sedan för att få väderrapporter och prognoser.

För att ändra kartan: Klicka på de gröna knapparna med ett svart kors på för att zooma in; den gröna knappen med ett streck på för att zooma ut; eller på de gröna pilarna för angränsande kartor.


METAR-TAF: